sensor_id;sensor_type;location;lat;lon;timestamp;pressure;altitude;pressure_sealevel;temperature;humidity
11174;BME280;5643;50.856;12.088;2022-08-26T00:00:59;99363.72;;;25.96;91.41
11174;BME280;5643;50.856;12.088;2022-08-26T00:03:27;99366.50;;;25.83;94.50
11174;BME280;5643;50.856;12.088;2022-08-26T00:05:54;99364.53;;;25.97;89.81
11174;BME280;5643;50.856;12.088;2022-08-26T00:08:22;99365.97;;;25.36;97.36
11174;BME280;5643;50.856;12.088;2022-08-26T00:10:50;99375.03;;;25.98;89.85
11174;BME280;5643;50.856;12.088;2022-08-26T00:13:18;99366.41;;;25.33;96.45
11174;BME280;5643;50.856;12.088;2022-08-26T00:15:47;99366.31;;;25.09;97.10
11174;BME280;5643;50.856;12.088;2022-08-26T00:18:18;99368.97;;;25.60;92.48
11174;BME280;5643;50.856;12.088;2022-08-26T00:20:46;99375.53;;;26.13;86.94
11174;BME280;5643;50.856;12.088;2022-08-26T00:23:14;99365.34;;;25.72;88.98
11174;BME280;5643;50.856;12.088;2022-08-26T00:25:42;99364.75;;;25.70;89.68
11174;BME280;5643;50.856;12.088;2022-08-26T00:28:11;99363.97;;;25.25;95.04
11174;BME280;5643;50.856;12.088;2022-08-26T00:30:40;99358.31;;;25.40;94.96
11174;BME280;5643;50.856;12.088;2022-08-26T00:33:08;99361.69;;;25.67;88.64
11174;BME280;5643;50.856;12.088;2022-08-26T00:35:37;99361.38;;;25.81;88.86
11174;BME280;5643;50.856;12.088;2022-08-26T00:38:05;99362.06;;;25.70;87.57
11174;BME280;5643;50.856;12.088;2022-08-26T00:40:35;99362.22;;;25.75;88.19
11174;BME280;5643;50.856;12.088;2022-08-26T00:43:04;99368.00;;;25.79;87.49
11174;BME280;5643;50.856;12.088;2022-08-26T00:45:38;99365.06;;;25.80;85.77
11174;BME280;5643;50.856;12.088;2022-08-26T00:48:08;99360.91;;;25.22;90.94
11174;BME280;5643;50.856;12.088;2022-08-26T00:50:42;99362.00;;;25.45;93.01
11174;BME280;5643;50.856;12.088;2022-08-26T00:53:16;99353.88;;;24.89;96.52
11174;BME280;5643;50.856;12.088;2022-08-26T00:55:53;99353.47;;;24.92;93.50
11174;BME280;5643;50.856;12.088;2022-08-26T00:58:23;99359.13;;;25.47;90.20
11174;BME280;5643;50.856;12.088;2022-08-26T01:00:51;99358.25;;;24.64;95.26
11174;BME280;5643;50.856;12.088;2022-08-26T01:03:22;99360.25;;;25.33;93.38
11174;BME280;5643;50.856;12.088;2022-08-26T01:05:55;99360.59;;;25.43;89.17
11174;BME280;5643;50.856;12.088;2022-08-26T01:08:25;99361.28;;;24.87;94.99
11174;BME280;5643;50.856;12.088;2022-08-26T01:10:54;99364.47;;;25.09;91.46
11174;BME280;5643;50.856;12.088;2022-08-26T01:13:24;99355.00;;;25.44;89.27
11174;BME280;5643;50.856;12.088;2022-08-26T01:15:56;99352.03;;;25.28;91.16
11174;BME280;5643;50.856;12.088;2022-08-26T01:18:25;99362.56;;;25.23;89.28
11174;BME280;5643;50.856;12.088;2022-08-26T01:20:58;99355.63;;;25.46;87.58
11174;BME280;5643;50.856;12.088;2022-08-26T01:23:35;99355.06;;;25.38;88.63
11174;BME280;5643;50.856;12.088;2022-08-26T01:26:07;99360.44;;;24.80;93.10
11174;BME280;5643;50.856;12.088;2022-08-26T01:28:39;99352.69;;;24.72;96.61
11174;BME280;5643;50.856;12.088;2022-08-26T01:31:13;99363.41;;;25.17;89.81
11174;BME280;5643;50.856;12.088;2022-08-26T01:33:51;99354.63;;;25.41;86.38
11174;BME280;5643;50.856;12.088;2022-08-26T01:36:25;99359.25;;;25.27;90.79
11174;BME280;5643;50.856;12.088;2022-08-26T01:38:58;99362.56;;;25.23;89.97
11174;BME280;5643;50.856;12.088;2022-08-26T01:41:26;99364.78;;;25.26;87.95
11174;BME280;5643;50.856;12.088;2022-08-26T01:43:55;99361.19;;;24.36;95.31
11174;BME280;5643;50.856;12.088;2022-08-26T01:46:25;99365.38;;;24.90;91.04
11174;BME280;5643;50.856;12.088;2022-08-26T01:48:58;99359.25;;;25.27;88.31
11174;BME280;5643;50.856;12.088;2022-08-26T01:51:29;99365.66;;;25.51;88.16
11174;BME280;5643;50.856;12.088;2022-08-26T01:54:07;99352.41;;;24.93;92.82
11174;BME280;5643;50.856;12.088;2022-08-26T01:56:36;99356.44;;;25.09;88.45
11174;BME280;5643;50.856;12.088;2022-08-26T01:59:08;99348.75;;;24.88;90.93
11174;BME280;5643;50.856;12.088;2022-08-26T02:01:37;99351.22;;;24.76;91.19
11174;BME280;5643;50.856;12.088;2022-08-26T02:04:11;99360.19;;;24.04;99.89
11174;BME280;5643;50.856;12.088;2022-08-26T02:06:43;99358.88;;;24.53;95.77
11174;BME280;5643;50.856;12.088;2022-08-26T02:09:14;99356.84;;;25.13;88.22
11174;BME280;5643;50.856;12.088;2022-08-26T02:11:43;99359.72;;;24.53;93.14
11174;BME280;5643;50.856;12.088;2022-08-26T02:14:14;99353.81;;;24.25;97.15
11174;BME280;5643;50.856;12.088;2022-08-26T02:16:46;99351.34;;;23.97;100.00
11174;BME280;5643;50.856;12.088;2022-08-26T02:19:16;99349.63;;;24.62;94.40
11174;BME280;5643;50.856;12.088;2022-08-26T02:21:46;99353.41;;;23.89;98.02
11174;BME280;5643;50.856;12.088;2022-08-26T02:24:19;99355.22;;;24.41;93.39
11174;BME280;5643;50.856;12.088;2022-08-26T02:26:49;99349.69;;;24.09;98.53
11174;BME280;5643;50.856;12.088;2022-08-26T02:29:23;99348.38;;;24.58;92.86
11174;BME280;5643;50.856;12.088;2022-08-26T02:31:53;99344.44;;;24.80;94.00
11174;BME280;5643;50.856;12.088;2022-08-26T02:34:27;99344.47;;;24.67;92.97
11174;BME280;5643;50.856;12.088;2022-08-26T02:36:58;99346.03;;;24.94;90.72
11174;BME280;5643;50.856;12.088;2022-08-26T02:39:39;99345.16;;;24.16;95.82
11174;BME280;5643;50.856;12.088;2022-08-26T02:42:09;99354.22;;;23.89;98.48
11174;BME280;5643;50.856;12.088;2022-08-26T02:44:37;99347.25;;;23.75;100.00
11174;BME280;5643;50.856;12.088;2022-08-26T02:47:08;99357.06;;;24.01;97.66
11174;BME280;5643;50.856;12.088;2022-08-26T02:49:41;99352.56;;;24.08;97.78
11174;BME280;5643;50.856;12.088;2022-08-26T02:52:09;99348.06;;;24.28;92.31
11174;BME280;5643;50.856;12.088;2022-08-26T02:54:39;99351.31;;;23.51;99.86
11174;BME280;5643;50.856;12.088;2022-08-26T02:57:08;99339.41;;;24.39;93.48
11174;BME280;5643;50.856;12.088;2022-08-26T02:59:36;99346.78;;;24.44;90.90
11174;BME280;5643;50.856;12.088;2022-08-26T03:02:05;99341.28;;;24.12;94.02
11174;BME280;5643;50.856;12.088;2022-08-26T03:04:36;99333.69;;;24.36;91.58
11174;BME280;5643;50.856;12.088;2022-08-26T03:07:05;99326.50;;;24.03;94.46
11174;BME280;5643;50.856;12.088;2022-08-26T03:09:34;99328.34;;;24.16;91.99
11174;BME280;5643;50.856;12.088;2022-08-26T03:12:09;99332.81;;;24.55;88.76
11174;BME280;5643;50.856;12.088;2022-08-26T03:14:40;99328.56;;;24.14;93.51
11174;BME280;5643;50.856;12.088;2022-08-26T03:17:09;99327.13;;;23.92;95.74
11174;BME280;5643;50.856;12.088;2022-08-26T03:19:38;99322.19;;;24.02;93.01
11174;BME280;5643;50.856;12.088;2022-08-26T03:22:08;99322.00;;;23.97;96.23
11174;BME280;5643;50.856;12.088;2022-08-26T03:24:42;99324.03;;;24.21;90.59
11174;BME280;5643;50.856;12.088;2022-08-26T03:27:36;99316.84;;;23.96;91.37
11174;BME280;5643;50.856;12.088;2022-08-26T03:30:39;99330.00;;;24.04;90.58
11174;BME280;5643;50.856;12.088;2022-08-26T03:33:25;99324.22;;;24.33;87.96
11174;BME280;5643;50.856;12.088;2022-08-26T03:36:06;99324.47;;;24.05;91.30
11174;BME280;5643;50.856;12.088;2022-08-26T03:38:48;99321.81;;;24.05;92.30
11174;BME280;5643;50.856;12.088;2022-08-26T03:41:22;99323.84;;;24.30;92.03
11174;BME280;5643;50.856;12.088;2022-08-26T03:43:56;99324.03;;;24.02;93.17
11174;BME280;5643;50.856;12.088;2022-08-26T03:46:30;99318.91;;;24.27;88.22
11174;BME280;5643;50.856;12.088;2022-08-26T03:49:27;99311.28;;;24.37;89.21
11174;BME280;5643;50.856;12.088;2022-08-26T03:51:59;99323.00;;;24.23;90.19
11174;BME280;5643;50.856;12.088;2022-08-26T03:54:30;99321.59;;;23.94;94.46
11174;BME280;5643;50.856;12.088;2022-08-26T03:57:01;99322.81;;;24.11;93.64
11174;BME280;5643;50.856;12.088;2022-08-26T03:59:30;99328.56;;;23.55;97.55
11174;BME280;5643;50.856;12.088;2022-08-26T04:01:58;99327.41;;;23.10;100.00
11174;BME280;5643;50.856;12.088;2022-08-26T04:04:27;99325.91;;;23.82;95.34
11174;BME280;5643;50.856;12.088;2022-08-26T04:06:57;99330.84;;;23.78;95.14
11174;BME280;5643;50.856;12.088;2022-08-26T04:09:31;99323.59;;;23.39;96.88
11174;BME280;5643;50.856;12.088;2022-08-26T04:11:59;99322.19;;;24.02;92.35
11174;BME280;5643;50.856;12.088;2022-08-26T04:14:31;99310.69;;;24.35;91.22
11174;BME280;5643;50.856;12.088;2022-08-26T04:17:04;99316.47;;;24.05;96.46
11174;BME280;5643;50.856;12.088;2022-08-26T04:19:39;99323.78;;;24.56;88.61
11174;BME280;5643;50.856;12.088;2022-08-26T04:22:13;99324.34;;;24.64;87.63
11174;BME280;5643;50.856;12.088;2022-08-26T04:24:43;99322.22;;;24.93;86.91
11174;BME280;5643;50.856;12.088;2022-08-26T04:27:15;99328.78;;;24.19;92.39
11174;BME280;5643;50.856;12.088;2022-08-26T04:29:47;99328.78;;;23.67;100.00
11174;BME280;5643;50.856;12.088;2022-08-26T04:32:16;99327.09;;;24.12;94.75
11174;BME280;5643;50.856;12.088;2022-08-26T04:34:47;99320.84;;;24.64;89.85
11174;BME280;5643;50.856;12.088;2022-08-26T04:37:15;99327.44;;;24.61;89.21
11174;BME280;5643;50.856;12.088;2022-08-26T04:39:44;99330.63;;;23.93;95.63
11174;BME280;5643;50.856;12.088;2022-08-26T04:42:12;99324.53;;;24.63;93.03
11174;BME280;5643;50.856;12.088;2022-08-26T04:44:41;99325.44;;;25.08;88.97
11174;BME280;5643;50.856;12.088;2022-08-26T04:47:12;99325.53;;;24.75;90.37
11174;BME280;5643;50.856;12.088;2022-08-26T04:49:41;99327.47;;;25.13;87.46
11174;BME280;5643;50.856;12.088;2022-08-26T04:52:09;99328.03;;;24.70;91.08
11174;BME280;5643;50.856;12.088;2022-08-26T04:54:38;99335.47;;;24.55;93.84
11174;BME280;5643;50.856;12.088;2022-08-26T04:57:07;99324.91;;;24.80;90.20
11174;BME280;5643;50.856;12.088;2022-08-26T04:59:38;99326.50;;;24.94;89.06
11174;BME280;5643;50.856;12.088;2022-08-26T05:02:08;99323.13;;;24.67;92.19
11174;BME280;5643;50.856;12.088;2022-08-26T05:05:10;99325.69;;;24.93;89.18
11174;BME280;5643;50.856;12.088;2022-08-26T05:08:06;99324.41;;;24.45;96.09
11174;BME280;5643;50.856;12.088;2022-08-26T05:10:39;99323.34;;;24.59;93.38
11174;BME280;5643;50.856;12.088;2022-08-26T05:13:45;99324.72;;;25.19;90.99
11174;BME280;5643;50.856;12.088;2022-08-26T05:16:45;99326.25;;;25.40;89.58
11174;BME280;5643;50.856;12.088;2022-08-26T05:19:50;99322.47;;;25.54;88.58
11174;BME280;5643;50.856;12.088;2022-08-26T05:22:56;99333.91;;;25.68;88.33
11174;BME280;5643;50.856;12.088;2022-08-26T05:25:35;99334.19;;;25.84;87.54
11174;BME280;5643;50.856;12.088;2022-08-26T05:28:33;99346.28;;;25.62;89.62
11174;BME280;5643;50.856;12.088;2022-08-26T05:31:19;99334.94;;;24.97;94.58
11174;BME280;5643;50.856;12.088;2022-08-26T05:34:14;99333.41;;;25.77;90.42
11174;BME280;5643;50.856;12.088;2022-08-26T05:36:59;99327.78;;;26.71;84.23
11174;BME280;5643;50.856;12.088;2022-08-26T05:39:45;99334.78;;;26.36;88.64
11174;BME280;5643;50.856;12.088;2022-08-26T05:42:32;99329.16;;;26.74;87.92
11174;BME280;5643;50.856;12.088;2022-08-26T05:45:10;99326.88;;;26.96;85.29
11174;BME280;5643;50.856;12.088;2022-08-26T05:47:55;99326.88;;;27.26;84.68
11174;BME280;5643;50.856;12.088;2022-08-26T05:50:28;99322.78;;;27.23;84.87
11174;BME280;5643;50.856;12.088;2022-08-26T05:53:07;99331.66;;;27.53;83.72
11174;BME280;5643;50.856;12.088;2022-08-26T05:55:44;99321.47;;;28.20;78.26
11174;BME280;5643;50.856;12.088;2022-08-26T05:58:17;99324.50;;;28.24;79.58
11174;BME280;5643;50.856;12.088;2022-08-26T06:00:57;99321.03;;;28.87;74.48
11174;BME280;5643;50.856;12.088;2022-08-26T06:03:35;99319.53;;;29.07;72.68
11174;BME280;5643;50.856;12.088;2022-08-26T06:06:17;99325.75;;;27.98;81.21
11174;BME280;5643;50.856;12.088;2022-08-26T06:09:15;99319.03;;;28.30;79.94
11174;BME280;5643;50.856;12.088;2022-08-26T06:11:53;99311.94;;;28.76;77.99
11174;BME280;5643;50.856;12.088;2022-08-26T06:14:31;99310.50;;;28.85;76.35
11174;BME280;5643;50.856;12.088;2022-08-26T06:17:20;99319.28;;;28.69;77.51
11174;BME280;5643;50.856;12.088;2022-08-26T06:20:04;99317.56;;;29.03;74.39
11174;BME280;5643;50.856;12.088;2022-08-26T06:22:48;99311.56;;;29.12;75.70
11174;BME280;5643;50.856;12.088;2022-08-26T06:25:49;99319.94;;;29.89;71.39
11174;BME280;5643;50.856;12.088;2022-08-26T06:28:45;99320.31;;;29.81;69.70
11174;BME280;5643;50.856;12.088;2022-08-26T06:31:21;99327.41;;;29.87;68.46
11174;BME280;5643;50.856;12.088;2022-08-26T06:33:59;99324.88;;;29.64;70.43
11174;BME280;5643;50.856;12.088;2022-08-26T06:36:52;99330.78;;;29.94;69.20
11174;BME280;5643;50.856;12.088;2022-08-26T06:39:26;99327.22;;;30.66;65.83
11174;BME280;5643;50.856;12.088;2022-08-26T06:42:30;99325.09;;;32.02;58.76
11174;BME280;5643;50.856;12.088;2022-08-26T06:45:43;99322.13;;;33.08;54.07
11174;BME280;5643;50.856;12.088;2022-08-26T06:48:35;99325.19;;;33.31;53.31
11174;BME280;5643;50.856;12.088;2022-08-26T06:51:26;99318.59;;;33.02;55.07
11174;BME280;5643;50.856;12.088;2022-08-26T06:54:08;99323.16;;;32.34;56.93
11174;BME280;5643;50.856;12.088;2022-08-26T06:56:42;99321.13;;;31.19;63.04
11174;BME280;5643;50.856;12.088;2022-08-26T06:59:11;99320.09;;;31.25;63.65
11174;BME280;5643;50.856;12.088;2022-08-26T07:01:50;99313.00;;;31.14;62.49
11174;BME280;5643;50.856;12.088;2022-08-26T07:04:26;99314.53;;;31.10;63.50
11174;BME280;5643;50.856;12.088;2022-08-26T07:07:05;99317.34;;;31.20;60.61
11174;BME280;5643;50.856;12.088;2022-08-26T07:09:44;99312.56;;;31.54;62.21
11174;BME280;5643;50.856;12.088;2022-08-26T07:12:39;99317.00;;;31.65;63.08
11174;BME280;5643;50.856;12.088;2022-08-26T07:15:16;99308.63;;;32.03;63.23
11174;BME280;5643;50.856;12.088;2022-08-26T07:17:46;99315.91;;;31.66;61.61
11174;BME280;5643;50.856;12.088;2022-08-26T07:20:23;99310.72;;;31.96;60.76
11174;BME280;5643;50.856;12.088;2022-08-26T07:22:53;99306.44;;;31.95;61.71
11174;BME280;5643;50.856;12.088;2022-08-26T07:25:25;99317.22;;;30.61;68.39
11174;BME280;5643;50.856;12.088;2022-08-26T07:28:15;99314.75;;;30.81;63.92
11174;BME280;5643;50.856;12.088;2022-08-26T07:31:06;99315.84;;;30.42;66.81
11174;BME280;5643;50.856;12.088;2022-08-26T07:34:48;99314.28;;;30.46;65.04
11174;BME280;5643;50.856;12.088;2022-08-26T07:37:32;99310.78;;;30.89;64.77
11174;BME280;5643;50.856;12.088;2022-08-26T07:40:15;99308.66;;;31.45;64.11
11174;BME280;5643;50.856;12.088;2022-08-26T07:43:12;99308.13;;;31.16;64.40
11174;BME280;5643;50.856;12.088;2022-08-26T07:45:59;99301.56;;;32.39;59.72
11174;BME280;5643;50.856;12.088;2022-08-26T07:48:30;99307.13;;;32.65;56.79
11174;BME280;5643;50.856;12.088;2022-08-26T07:51:07;99310.47;;;32.97;60.09
11174;BME280;5643;50.856;12.088;2022-08-26T07:53:41;99309.66;;;32.34;56.57
11174;BME280;5643;50.856;12.088;2022-08-26T07:56:33;99311.84;;;33.05;56.12
11174;BME280;5643;50.856;12.088;2022-08-26T07:59:18;99307.13;;;32.70;55.65
11174;BME280;5643;50.856;12.088;2022-08-26T08:01:53;99307.06;;;33.62;51.85
11174;BME280;5643;50.856;12.088;2022-08-26T08:04:33;99302.13;;;33.09;53.62
11174;BME280;5643;50.856;12.088;2022-08-26T08:07:12;99300.81;;;33.21;53.89
11174;BME280;5643;50.856;12.088;2022-08-26T08:09:44;99299.19;;;33.40;52.21
11174;BME280;5643;50.856;12.088;2022-08-26T08:12:27;99297.69;;;32.72;54.14
11174;BME280;5643;50.856;12.088;2022-08-26T08:15:02;99297.78;;;33.03;51.68
11174;BME280;5643;50.856;12.088;2022-08-26T08:17:42;99296.78;;;33.34;52.79
11174;BME280;5643;50.856;12.088;2022-08-26T08:20:12;99292.81;;;32.79;55.30
11174;BME280;5643;50.856;12.088;2022-08-26T08:22:47;99293.53;;;33.52;52.75
11174;BME280;5643;50.856;12.088;2022-08-26T08:25:26;99291.38;;;33.79;52.92
11174;BME280;5643;50.856;12.088;2022-08-26T08:28:56;99293.25;;;33.89;50.44
11174;BME280;5643;50.856;12.088;2022-08-26T08:31:33;99291.63;;;33.32;50.36
11174;BME280;5643;50.856;12.088;2022-08-26T08:34:24;99287.38;;;32.17;54.57
11174;BME280;5643;50.856;12.088;2022-08-26T08:36:58;99293.41;;;31.92;55.66
11174;BME280;5643;50.856;12.088;2022-08-26T08:39:58;99285.88;;;32.98;53.90
11174;BME280;5643;50.856;12.088;2022-08-26T08:42:41;99284.00;;;32.37;55.72
11174;BME280;5643;50.856;12.088;2022-08-26T08:45:33;99286.22;;;33.63;50.44
11174;BME280;5643;50.856;12.088;2022-08-26T08:48:19;99283.66;;;34.42;51.49
11174;BME280;5643;50.856;12.088;2022-08-26T08:51:17;99278.31;;;34.86;48.59
11174;BME280;5643;50.856;12.088;2022-08-26T08:53:54;99273.75;;;33.41;49.73
11174;BME280;5643;50.856;12.088;2022-08-26T08:56:39;99274.16;;;34.45;50.12
11174;BME280;5643;50.856;12.088;2022-08-26T08:59:19;99261.25;;;35.25;47.63
11174;BME280;5643;50.856;12.088;2022-08-26T09:02:17;99269.72;;;33.79;50.73
11174;BME280;5643;50.856;12.088;2022-08-26T09:05:09;99262.78;;;32.71;54.13
11174;BME280;5643;50.856;12.088;2022-08-26T09:08:13;99257.06;;;34.44;50.89
11174;BME280;5643;50.856;12.088;2022-08-26T09:11:08;99260.13;;;34.17;52.78
11174;BME280;5643;50.856;12.088;2022-08-26T09:13:55;99250.75;;;33.54;50.09
11174;BME280;5643;50.856;12.088;2022-08-26T09:16:35;99245.22;;;34.15;48.57
11174;BME280;5643;50.856;12.088;2022-08-26T09:19:12;99249.88;;;33.94;49.95
11174;BME280;5643;50.856;12.088;2022-08-26T09:21:55;99241.06;;;32.55;51.11
11174;BME280;5643;50.856;12.088;2022-08-26T09:24:39;99241.22;;;33.82;50.55
11174;BME280;5643;50.856;12.088;2022-08-26T09:27:08;99239.25;;;34.18;48.08
11174;BME280;5643;50.856;12.088;2022-08-26T09:29:42;99237.47;;;33.42;49.59
11174;BME280;5643;50.856;12.088;2022-08-26T09:32:24;99232.88;;;33.33;50.04
11174;BME280;5643;50.856;12.088;2022-08-26T09:35:03;99235.28;;;33.65;50.03
11174;BME280;5643;50.856;12.088;2022-08-26T09:37:37;99246.13;;;33.60;49.11
11174;BME280;5643;50.856;12.088;2022-08-26T09:40:29;99239.09;;;33.69;47.97
11174;BME280;5643;50.856;12.088;2022-08-26T09:43:10;99232.94;;;34.38;48.20
11174;BME280;5643;50.856;12.088;2022-08-26T09:45:42;99234.59;;;34.34;49.24
11174;BME280;5643;50.856;12.088;2022-08-26T09:48:23;99223.84;;;34.78;47.57
11174;BME280;5643;50.856;12.088;2022-08-26T09:51:03;99224.63;;;34.09;49.22
11174;BME280;5643;50.856;12.088;2022-08-26T09:53:35;99222.16;;;34.28;50.16
11174;BME280;5643;50.856;12.088;2022-08-26T09:56:34;99216.75;;;34.12;47.74
11174;BME280;5643;50.856;12.088;2022-08-26T09:59:16;99209.50;;;34.72;50.43
11174;BME280;5643;50.856;12.088;2022-08-26T10:02:43;99199.47;;;35.06;45.99
11174;BME280;5643;50.856;12.088;2022-08-26T10:05:27;99201.13;;;35.94;45.55
11174;BME280;5643;50.856;12.088;2022-08-26T10:08:23;99198.09;;;35.43;48.29
11174;BME280;5643;50.856;12.088;2022-08-26T10:11:17;99196.88;;;34.37;47.69
11174;BME280;5643;50.856;12.088;2022-08-26T10:13:58;99191.75;;;34.36;47.71
11174;BME280;5643;50.856;12.088;2022-08-26T10:16:51;99198.47;;;33.54;47.21
11174;BME280;5643;50.856;12.088;2022-08-26T10:19:53;99188.72;;;33.07;49.45
11174;BME280;5643;50.856;12.088;2022-08-26T10:22:59;99184.88;;;33.89;46.08
11174;BME280;5643;50.856;12.088;2022-08-26T10:26:00;99168.13;;;34.46;44.53
11174;BME280;5643;50.856;12.088;2022-08-26T10:28:44;99164.19;;;34.18;46.77
11174;BME280;5643;50.856;12.088;2022-08-26T10:31:40;99170.63;;;33.28;49.37
11174;BME280;5643;50.856;12.088;2022-08-26T10:34:09;99170.59;;;33.43;49.88
11174;BME280;5643;50.856;12.088;2022-08-26T10:36:49;99150.78;;;34.37;47.48
11174;BME280;5643;50.856;12.088;2022-08-26T10:39:25;99144.13;;;34.14;50.71
11174;BME280;5643;50.856;12.088;2022-08-26T10:42:05;99140.84;;;34.72;48.39
11174;BME280;5643;50.856;12.088;2022-08-26T10:44:42;99132.59;;;35.21;45.28
11174;BME280;5643;50.856;12.088;2022-08-26T10:47:27;99139.63;;;34.44;48.23
11174;BME280;5643;50.856;12.088;2022-08-26T10:50:05;99124.28;;;35.65;44.91
11174;BME280;5643;50.856;12.088;2022-08-26T10:52:51;99126.34;;;35.20;42.20
11174;BME280;5643;50.856;12.088;2022-08-26T10:55:26;99116.72;;;34.70;45.31
11174;BME280;5643;50.856;12.088;2022-08-26T10:58:08;99116.34;;;34.38;44.89
11174;BME280;5643;50.856;12.088;2022-08-26T11:00:50;99106.19;;;35.50;42.75
11174;BME280;5643;50.856;12.088;2022-08-26T11:03:52;99103.22;;;36.93;40.25
11174;BME280;5643;50.856;12.088;2022-08-26T11:06:30;99102.13;;;36.38;41.92
11174;BME280;5643;50.856;12.088;2022-08-26T11:09:04;99103.16;;;36.60;41.52
11174;BME280;5643;50.856;12.088;2022-08-26T11:11:49;99100.84;;;35.16;43.57
11174;BME280;5643;50.856;12.088;2022-08-26T11:14:41;99097.19;;;35.02;43.07
11174;BME280;5643;50.856;12.088;2022-08-26T11:17:57;99093.84;;;36.29;42.26
11174;BME280;5643;50.856;12.088;2022-08-26T11:20:56;99090.72;;;36.92;39.74
11174;BME280;5643;50.856;12.088;2022-08-26T11:23:57;99092.59;;;36.40;39.60
11174;BME280;5643;50.856;12.088;2022-08-26T11:30:04;99087.13;;;36.59;36.79
11174;BME280;5643;50.856;12.088;2022-08-26T11:32:51;99087.22;;;37.65;37.13
11174;BME280;5643;50.856;12.088;2022-08-26T11:36:03;99079.81;;;37.38;37.66
11174;BME280;5643;50.856;12.088;2022-08-26T11:39:12;99084.59;;;37.60;38.04
11174;BME280;5643;50.856;12.088;2022-08-26T11:41:48;99073.22;;;38.21;36.29
11174;BME280;5643;50.856;12.088;2022-08-26T11:44:34;99067.91;;;38.83;34.93
11174;BME280;5643;50.856;12.088;2022-08-26T11:47:07;99073.25;;;37.39;37.62
11174;BME280;5643;50.856;12.088;2022-08-26T11:49:43;99070.03;;;37.78;36.46
11174;BME280;5643;50.856;12.088;2022-08-26T11:52:15;99058.13;;;37.74;37.72
11174;BME280;5643;50.856;12.088;2022-08-26T11:55:05;99070.78;;;35.84;39.18
11174;BME280;5643;50.856;12.088;2022-08-26T11:57:50;99064.97;;;35.48;40.86
11174;BME280;5643;50.856;12.088;2022-08-26T12:00:47;99058.91;;;35.03;39.13
11174;BME280;5643;50.856;12.088;2022-08-26T12:03:19;99070.31;;;34.72;39.54
11174;BME280;5643;50.856;12.088;2022-08-26T12:05:51;99068.94;;;34.35;42.44
11174;BME280;5643;50.856;12.088;2022-08-26T12:08:23;99072.13;;;35.10;40.77
11174;BME280;5643;50.856;12.088;2022-08-26T12:11:04;99074.41;;;36.54;37.58
11174;BME280;5643;50.856;12.088;2022-08-26T12:13:41;99071.28;;;35.86;39.40
11174;BME280;5643;50.856;12.088;2022-08-26T12:16:52;99060.25;;;35.30;43.80
11174;BME280;5643;50.856;12.088;2022-08-26T12:19:35;99061.38;;;35.53;42.48
11174;BME280;5643;50.856;12.088;2022-08-26T12:22:30;99064.16;;;35.24;41.19
11174;BME280;5643;50.856;12.088;2022-08-26T12:25:38;99063.81;;;35.54;40.14
11174;BME280;5643;50.856;12.088;2022-08-26T12:28:42;99054.63;;;35.74;39.15
11174;BME280;5643;50.856;12.088;2022-08-26T12:31:30;99053.34;;;35.66;43.15
11174;BME280;5643;50.856;12.088;2022-08-26T12:34:17;99062.81;;;34.92;43.18
11174;BME280;5643;50.856;12.088;2022-08-26T12:37:12;99047.16;;;34.79;42.19
11174;BME280;5643;50.856;12.088;2022-08-26T12:39:53;99044.72;;;35.59;42.72
11174;BME280;5643;50.856;12.088;2022-08-26T12:42:39;99051.63;;;34.31;44.76
11174;BME280;5643;50.856;12.088;2022-08-26T12:45:29;99038.16;;;35.18;42.45
11174;BME280;5643;50.856;12.088;2022-08-26T12:48:07;99028.72;;;35.58;42.10
11174;BME280;5643;50.856;12.088;2022-08-26T12:50:44;99027.22;;;35.46;43.13
11174;BME280;5643;50.856;12.088;2022-08-26T12:53:19;99024.91;;;35.35;44.53
11174;BME280;5643;50.856;12.088;2022-08-26T12:55:51;99030.44;;;34.67;43.48
11174;BME280;5643;50.856;12.088;2022-08-26T12:58:23;99020.63;;;33.98;45.25
11174;BME280;5643;50.856;12.088;2022-08-26T13:01:18;99018.44;;;35.31;44.27
11174;BME280;5643;50.856;12.088;2022-08-26T13:03:52;99015.91;;;34.87;44.95
11174;BME280;5643;50.856;12.088;2022-08-26T13:06:45;99009.91;;;35.19;44.85
11174;BME280;5643;50.856;12.088;2022-08-26T13:09:29;99017.13;;;34.99;44.50
11174;BME280;5643;50.856;12.088;2022-08-26T13:12:05;99013.19;;;34.87;46.69
11174;BME280;5643;50.856;12.088;2022-08-26T13:14:33;99015.06;;;34.57;45.93
11174;BME280;5643;50.856;12.088;2022-08-26T13:17:02;99018.63;;;34.19;45.24
11174;BME280;5643;50.856;12.088;2022-08-26T13:19:33;99028.44;;;34.83;45.94
11174;BME280;5643;50.856;12.088;2022-08-26T13:22:03;99033.03;;;35.11;46.47
11174;BME280;5643;50.856;12.088;2022-08-26T13:24:41;99042.38;;;34.71;45.80
11174;BME280;5643;50.856;12.088;2022-08-26T13:27:26;99040.47;;;34.33;46.41
11174;BME280;5643;50.856;12.088;2022-08-26T13:30:04;99034.72;;;34.39;46.35
11174;BME280;5643;50.856;12.088;2022-08-26T13:33:04;99039.31;;;34.44;46.09
11174;BME280;5643;50.856;12.088;2022-08-26T13:36:00;99037.41;;;34.78;46.25
11174;BME280;5643;50.856;12.088;2022-08-26T13:38:54;99024.31;;;34.85;45.15
11174;BME280;5643;50.856;12.088;2022-08-26T13:41:27;99033.09;;;34.77;46.94
11174;BME280;5643;50.856;12.088;2022-08-26T13:43:56;99032.88;;;34.35;46.58
11174;BME280;5643;50.856;12.088;2022-08-26T13:46:25;99035.28;;;34.75;45.64
11174;BME280;5643;50.856;12.088;2022-08-26T13:48:59;99031.03;;;33.71;46.88
11174;BME280;5643;50.856;12.088;2022-08-26T13:51:39;99022.78;;;33.96;45.79
11174;BME280;5643;50.856;12.088;2022-08-26T13:54:48;99031.28;;;34.29;46.12
11174;BME280;5643;50.856;12.088;2022-08-26T13:57:43;99034.66;;;34.49;46.12
11174;BME280;5643;50.856;12.088;2022-08-26T14:00:29;99032.16;;;34.53;45.42
11174;BME280;5643;50.856;12.088;2022-08-26T14:03:09;99033.16;;;34.67;45.76
11174;BME280;5643;50.856;12.088;2022-08-26T14:05:57;99037.50;;;34.68;44.95
11174;BME280;5643;50.856;12.088;2022-08-26T14:08:36;99044.25;;;34.37;45.77
11174;BME280;5643;50.856;12.088;2022-08-26T14:14:43;99044.25;;;33.88;43.93